Time;durP1;ratioP1;P1;durP2;ratioP2;P2;SDS_P1;SDS_P2;PMS_P1;PMS_P2;Temp;Humidity;BMP_temperature;BMP_pressure;BME280_temperature;BME280_humidity;BME280_pressure;Samples;Min_cycle;Max_cycle;Signal;HPM_P1;HPM_P2
2022/07/07 00:00:58;;;;;;;1.20;0.63;;;23.30;60.90;;;;;;5060377;28;20159;-27
2022/07/07 00:03:24;;;;;;;0.70;0.50;;;23.30;60.60;;;;;;5061994;28;20049;-27
2022/07/07 00:05:49;;;;;;;1.52;0.70;;;23.30;60.50;;;;;;5065219;28;20036;-27
2022/07/07 00:08:15;;;;;;;1.10;0.60;;;23.30;60.80;;;;;;5044658;28;20048;-27
2022/07/07 00:10:41;;;;;;;1.00;0.50;;;23.20;60.80;;;;;;5056210;28;20107;-27
2022/07/07 00:13:06;;;;;;;0.50;0.50;;;23.20;60.70;;;;;;5064500;28;20052;-27
2022/07/07 00:15:32;;;;;;;0.65;0.65;;;23.20;60.90;;;;;;5053551;28;20425;-26
2022/07/07 00:17:57;;;;;;;1.02;0.52;;;23.10;60.80;;;;;;5034259;28;20522;-28
2022/07/07 00:20:23;;;;;;;0.60;0.60;;;23.10;61.00;;;;;;5035338;28;20216;-26
2022/07/07 00:22:49;;;;;;;1.00;0.50;;;23.10;60.80;;;;;;5040171;28;20056;-27
2022/07/07 00:25:14;;;;;;;0.47;0.40;;;23.10;61.00;;;;;;5040600;28;20058;-27
2022/07/07 00:27:40;;;;;;;1.48;0.45;;;23.20;60.90;;;;;;5056351;28;20049;-27
2022/07/07 00:30:06;;;;;;;0.90;0.82;;;23.10;60.90;;;;;;5051359;28;20330;-28
2022/07/07 00:32:31;;;;;;;0.88;0.68;;;23.10;60.70;;;;;;5061969;28;20496;-27
2022/07/07 00:34:57;;;;;;;0.63;0.60;;;23.10;60.30;;;;;;5049170;28;20086;-27
2022/07/07 00:37:23;;;;;;;0.40;0.40;;;22.80;60.90;;;;;;5050003;28;20185;-27
2022/07/07 00:39:49;;;;;;;0.93;0.88;;;22.50;61.60;;;;;;5064050;28;20505;-27
2022/07/07 00:42:15;;;;;;;0.77;0.60;;;22.30;62.10;;;;;;5061979;28;20060;-26
2022/07/07 00:44:41;;;;;;;0.75;0.50;;;22.20;62.30;;;;;;5063750;28;20048;-27
2022/07/07 00:47:07;;;;;;;1.45;0.90;;;22.10;62.60;;;;;;5062390;28;20040;-27
2022/07/07 00:49:32;;;;;;;0.70;0.30;;;22.20;62.50;;;;;;5062461;28;20404;-26
2022/07/07 00:51:58;;;;;;;0.52;0.50;;;22.10;62.60;;;;;;5063096;28;20045;-27
2022/07/07 00:54:24;;;;;;;0.70;0.43;;;22.00;62.80;;;;;;5051078;28;20513;-27
2022/07/07 00:56:49;;;;;;;0.63;0.30;;;22.00;63.00;;;;;;5041114;28;20037;-27
2022/07/07 00:59:15;;;;;;;1.02;0.50;;;22.00;62.80;;;;;;5039193;28;20133;-27
2022/07/07 01:01:41;;;;;;;0.70;0.40;;;22.00;62.70;;;;;;5056024;28;20055;-27
2022/07/07 01:04:11;;;;;;;1.13;0.63;;;22.00;62.50;;;;;;5061529;28;20047;-27
2022/07/07 01:06:37;;;;;;;0.70;0.60;;;21.90;62.60;;;;;;5053589;28;20524;-29
2022/07/07 01:09:03;;;;;;;0.57;0.50;;;22.00;62.50;;;;;;5054821;28;20052;-28
2022/07/07 01:11:44;;;;;;;0.77;0.55;;;22.10;62.50;;;;;;5040938;28;20119;-27
2022/07/07 01:14:09;;;;;;;0.40;0.30;;;21.80;63.20;;;;;;5040489;28;20441;-27
2022/07/07 01:16:35;;;;;;;1.00;0.40;;;21.70;63.70;;;;;;5041600;28;20056;-27
2022/07/07 01:19:00;;;;;;;0.52;0.30;;;21.70;64.00;;;;;;5044219;28;20064;-27
2022/07/07 01:21:26;;;;;;;1.35;0.50;;;21.70;63.90;;;;;;5044945;28;20874;-27
2022/07/07 01:23:51;;;;;;;1.45;0.50;;;21.70;63.90;;;;;;5041453;28;20060;-27
2022/07/07 01:26:17;;;;;;;1.88;0.70;;;21.80;63.60;;;;;;5063127;28;20040;-27
2022/07/07 01:28:43;;;;;;;0.77;0.50;;;21.70;64.50;;;;;;5064000;28;20063;-27
2022/07/07 01:31:08;;;;;;;1.75;0.43;;;21.60;64.00;;;;;;5065528;28;20037;-27
2022/07/07 01:33:34;;;;;;;1.20;0.52;;;21.50;64.30;;;;;;5065329;28;20043;-27
2022/07/07 01:36:00;;;;;;;1.17;0.40;;;21.60;64.20;;;;;;5061635;28;20082;-27
2022/07/07 01:38:25;;;;;;;1.17;0.38;;;21.50;64.50;;;;;;5062577;28;20056;-27
2022/07/07 01:40:51;;;;;;;0.73;0.50;;;21.50;64.30;;;;;;5058236;28;20060;-27
2022/07/07 01:43:16;;;;;;;1.23;0.50;;;21.50;64.40;;;;;;5058529;28;20044;-27
2022/07/07 01:45:42;;;;;;;1.13;0.43;;;21.50;64.60;;;;;;5064135;28;20287;-27
2022/07/07 01:48:07;;;;;;;1.42;0.52;;;21.50;64.30;;;;;;5053007;28;20088;-27
2022/07/07 01:50:33;;;;;;;0.70;0.50;;;21.50;64.00;;;;;;5039691;28;20068;-27
2022/07/07 01:52:59;;;;;;;1.25;0.50;;;21.60;63.80;;;;;;5039870;28;20057;-27
2022/07/07 01:55:24;;;;;;;1.92;0.40;;;21.50;64.20;;;;;;5040895;28;20490;-27
2022/07/07 01:57:50;;;;;;;1.42;0.40;;;21.40;64.40;;;;;;5040005;28;20129;-27
2022/07/07 02:00:16;;;;;;;1.27;0.60;;;21.50;64.20;;;;;;5062451;28;20044;-27
2022/07/07 02:02:41;;;;;;;0.63;0.30;;;21.50;64.10;;;;;;5050621;28;20083;-27
2022/07/07 02:05:07;;;;;;;0.30;0.30;;;21.50;64.10;;;;;;5038229;28;20110;-27
2022/07/07 02:07:35;;;;;;;1.05;0.60;;;21.50;64.10;;;;;;5039831;28;20047;-27
2022/07/07 02:10:01;;;;;;;1.85;0.50;;;21.40;64.20;;;;;;5034123;28;20120;-27
2022/07/07 02:12:26;;;;;;;0.60;0.40;;;21.40;64.50;;;;;;5039916;28;20455;-27
2022/07/07 02:14:52;;;;;;;0.77;0.40;;;21.40;64.30;;;;;;5034995;28;20044;-27
2022/07/07 02:17:18;;;;;;;0.95;0.47;;;21.50;64.00;;;;;;5035976;28;20037;-27
2022/07/07 02:19:43;;;;;;;1.98;0.60;;;21.50;64.00;;;;;;5038697;28;20183;-27
2022/07/07 02:22:09;;;;;;;0.73;0.43;;;21.50;63.90;;;;;;5037479;28;20037;-27
2022/07/07 02:24:34;;;;;;;0.80;0.47;;;21.50;64.00;;;;;;5039857;28;20041;-27
2022/07/07 02:27:00;;;;;;;0.88;0.30;;;21.40;64.20;;;;;;5059698;28;20053;-27
2022/07/07 02:29:25;;;;;;;1.05;0.57;;;21.40;64.10;;;;;;5048943;28;20122;-27
2022/07/07 02:31:51;;;;;;;1.55;0.75;;;21.40;63.90;;;;;;5056559;28;20048;-27
2022/07/07 02:34:17;;;;;;;0.80;0.50;;;21.40;64.10;;;;;;5044442;28;20052;-27
2022/07/07 02:36:42;;;;;;;1.88;0.60;;;21.40;64.20;;;;;;5044715;28;20110;-27
2022/07/07 02:39:08;;;;;;;0.90;0.60;;;21.40;63.90;;;;;;5033185;28;20041;-27
2022/07/07 02:41:33;;;;;;;1.17;0.43;;;21.40;63.90;;;;;;5038254;28;20176;-27
2022/07/07 02:43:59;;;;;;;0.75;0.35;;;21.40;63.90;;;;;;5060464;28;20505;-27
2022/07/07 02:46:24;;;;;;;1.95;0.50;;;21.30;64.10;;;;;;5064404;28;20098;-27
2022/07/07 02:48:50;;;;;;;1.05;0.32;;;21.30;64.20;;;;;;5054215;28;20132;-27
2022/07/07 02:51:15;;;;;;;0.75;0.30;;;21.30;64.30;;;;;;5052486;28;20045;-27
2022/07/07 02:53:41;;;;;;;2.58;0.50;;;21.30;64.30;;;;;;5062027;28;20585;-27
2022/07/07 02:56:07;;;;;;;1.52;0.63;;;21.30;64.20;;;;;;5054834;28;20052;-27
2022/07/07 02:58:32;;;;;;;0.98;0.60;;;21.30;64.00;;;;;;5062149;28;20455;-26
2022/07/07 03:00:58;;;;;;;1.23;0.45;;;21.30;64.30;;;;;;5050882;28;20568;-27
2022/07/07 03:03:23;;;;;;;1.70;1.00;;;21.20;64.30;;;;;;5038240;28;20048;-27
2022/07/07 03:05:49;;;;;;;2.40;0.70;;;21.10;64.60;;;;;;5039128;28;20041;-28
2022/07/07 03:08:15;;;;;;;0.75;0.30;;;21.10;64.90;;;;;;5038088;28;20041;-27
2022/07/07 03:10:40;;;;;;;1.05;0.50;;;21.10;64.90;;;;;;5056097;28;20094;-27
2022/07/07 03:13:06;;;;;;;0.73;0.30;;;21.10;64.90;;;;;;5055391;28;20059;-28
2022/07/07 03:15:31;;;;;;;0.80;0.47;;;21.00;65.20;;;;;;5054011;28;20041;-27
2022/07/07 03:17:57;;;;;;;1.02;0.50;;;21.00;65.10;;;;;;5051419;28;20057;-27
2022/07/07 03:20:24;;;;;;;0.93;0.40;;;21.00;66.00;;;;;;5059023;28;20666;-27
2022/07/07 03:22:49;;;;;;;0.50;0.40;;;21.10;65.10;;;;;;5055560;28;20033;-27
2022/07/07 03:25:15;;;;;;;1.17;0.70;;;21.00;65.10;;;;;;5047572;28;20064;-27
2022/07/07 03:27:41;;;;;;;1.20;0.60;;;21.10;64.90;;;;;;5059103;28;20041;-27
2022/07/07 03:30:07;;;;;;;1.25;0.55;;;21.10;65.00;;;;;;5052244;28;20478;-27
2022/07/07 03:32:33;;;;;;;0.35;0.35;;;21.00;65.10;;;;;;5065836;28;20102;-27
2022/07/07 03:34:58;;;;;;;0.60;0.45;;;20.90;65.40;;;;;;5064871;28;20041;-27
2022/07/07 03:37:24;;;;;;;1.10;0.60;;;20.90;65.40;;;;;;5052303;28;20413;-27
2022/07/07 03:39:50;;;;;;;1.27;0.45;;;21.00;65.30;;;;;;5066477;28;20106;-27
2022/07/07 03:42:15;;;;;;;1.75;0.75;;;21.00;65.00;;;;;;5060387;28;20040;-27
2022/07/07 03:44:41;;;;;;;1.13;0.60;;;20.90;65.10;;;;;;5053309;28;20512;-27
2022/07/07 03:47:07;;;;;;;2.20;0.50;;;20.90;66.10;;;;;;5044950;28;20048;-26
2022/07/07 03:49:32;;;;;;;1.38;0.60;;;20.90;65.20;;;;;;5063808;28;20453;-27
2022/07/07 03:51:58;;;;;;;1.63;0.60;;;20.90;65.30;;;;;;5052355;28;20032;-27
2022/07/07 03:54:23;;;;;;;1.02;0.77;;;20.80;65.50;;;;;;5051324;28;20037;-27
2022/07/07 03:56:49;;;;;;;0.90;0.50;;;20.80;65.50;;;;;;5063722;28;20041;-27
2022/07/07 03:59:14;;;;;;;0.95;0.40;;;20.90;66.30;;;;;;5066755;28;20494;-27
2022/07/07 04:01:45;;;;;;;0.50;0.50;;;20.80;65.40;;;;;;5062711;28;20040;-27
2022/07/07 04:04:11;;;;;;;1.05;0.50;;;20.80;65.30;;;;;;5064001;28;20040;-27
2022/07/07 04:06:37;;;;;;;1.20;0.55;;;20.80;65.40;;;;;;5060202;28;20049;-27
2022/07/07 04:09:03;;;;;;;0.63;0.40;;;20.70;65.40;;;;;;5038506;28;20099;-27
2022/07/07 04:11:28;;;;;;;0.82;0.40;;;20.70;65.50;;;;;;5059043;28;20390;-27
2022/07/07 04:13:54;;;;;;;0.73;0.50;;;20.70;65.40;;;;;;5037946;28;20045;-27
2022/07/07 04:16:20;;;;;;;1.30;0.60;;;20.70;65.60;;;;;;5056248;28;20412;-28
2022/07/07 04:18:45;;;;;;;2.17;0.63;;;20.70;65.60;;;;;;5043796;28;20048;-27
2022/07/07 04:21:11;;;;;;;1.23;0.60;;;20.70;65.50;;;;;;5061109;28;20128;-28
2022/07/07 04:23:36;;;;;;;2.45;0.85;;;20.70;65.60;;;;;;5056229;28;20040;-27
2022/07/07 04:26:02;;;;;;;0.98;0.50;;;20.60;65.70;;;;;;5039569;28;20486;-27
2022/07/07 04:28:29;;;;;;;1.00;0.60;;;20.60;65.80;;;;;;5064346;28;20032;-27
2022/07/07 04:30:55;;;;;;;0.70;0.47;;;20.60;65.90;;;;;;5065205;28;20048;-28
2022/07/07 04:33:21;;;;;;;0.70;0.40;;;20.60;65.90;;;;;;5064554;28;20033;-28
2022/07/07 04:35:46;;;;;;;1.48;0.68;;;20.60;65.80;;;;;;5066015;28;20043;-27
2022/07/07 04:38:13;;;;;;;2.03;0.70;;;20.60;66.00;;;;;;5064410;28;20048;-27
2022/07/07 04:40:39;;;;;;;2.00;0.75;;;20.60;65.80;;;;;;5059777;28;21090;-26
2022/07/07 04:43:04;;;;;;;0.65;0.40;;;20.60;66.70;;;;;;5057434;28;20408;-27
2022/07/07 04:45:30;;;;;;;1.42;0.40;;;20.60;66.10;;;;;;5047692;28;20048;-27
2022/07/07 04:47:55;;;;;;;0.65;0.52;;;20.50;66.10;;;;;;5044249;28;20036;-28
2022/07/07 04:50:21;;;;;;;0.80;0.60;;;20.50;67.10;;;;;;5057064;28;20044;-27
2022/07/07 04:52:47;;;;;;;0.95;0.60;;;20.50;66.40;;;;;;5056337;28;20131;-27
2022/07/07 04:55:12;;;;;;;0.90;0.60;;;20.50;66.50;;;;;;5044720;28;20409;-27
2022/07/07 04:57:38;;;;;;;2.10;0.60;;;20.50;66.60;;;;;;5060586;28;20037;-27
2022/07/07 05:00:04;;;;;;;1.23;0.55;;;20.40;66.80;;;;;;5050155;28;20036;-27
2022/07/07 05:02:29;;;;;;;0.80;0.43;;;20.40;66.90;;;;;;5059939;28;20045;-27
2022/07/07 05:04:56;;;;;;;0.93;0.50;;;20.40;66.90;;;;;;5063693;28;20059;-27
2022/07/07 05:07:22;;;;;;;2.65;0.60;;;20.50;66.80;;;;;;5060768;28;20440;-27
2022/07/07 05:09:47;;;;;;;1.50;1.02;;;20.40;66.90;;;;;;5063685;28;20037;-27
2022/07/07 05:12:13;;;;;;;0.70;0.50;;;20.40;67.70;;;;;;5063366;28;20402;-28
2022/07/07 05:14:39;;;;;;;0.90;0.60;;;20.40;67.20;;;;;;5063365;28;20064;-27
2022/07/07 05:17:04;;;;;;;1.52;0.70;;;20.40;67.30;;;;;;5062423;28;20036;-27
2022/07/07 05:19:30;;;;;;;2.78;0.65;;;20.40;67.30;;;;;;5050566;28;20037;-27
2022/07/07 05:21:55;;;;;;;1.63;0.63;;;20.40;67.40;;;;;;4696653;28;10000721;-28
2022/07/07 05:24:21;;;;;;;2.33;1.02;;;20.30;67.90;;;;;;5055939;28;20579;-27
2022/07/07 05:26:47;;;;;;;5.03;1.08;;;20.10;69.10;;;;;;5056576;28;20143;-27
2022/07/07 05:29:12;;;;;;;2.00;0.90;;;20.20;68.80;;;;;;5056691;28;20413;-25
2022/07/07 05:31:38;;;;;;;0.80;0.55;;;20.40;68.50;;;;;;5045211;28;20110;-27
2022/07/07 05:34:04;;;;;;;1.77;0.75;;;20.40;69.10;;;;;;5053188;28;20045;-27
2022/07/07 05:36:30;;;;;;;2.28;0.50;;;20.40;68.30;;;;;;5044780;28;20049;-26
2022/07/07 05:38:56;;;;;;;0.70;0.47;;;20.40;68.30;;;;;;5050966;28;20135;-28
2022/07/07 05:41:21;;;;;;;2.30;0.60;;;20.40;68.10;;;;;;5041207;28;20170;-32
2022/07/07 05:43:48;;;;;;;0.93;0.52;;;20.40;68.10;;;;;;5043989;28;20498;-27
2022/07/07 05:46:13;;;;;;;2.45;0.60;;;20.50;68.00;;;;;;5027805;28;20064;-26
2022/07/07 05:48:39;;;;;;;1.02;0.63;;;20.60;68.00;;;;;;5031421;28;20056;-28
2022/07/07 05:51:04;;;;;;;2.42;0.77;;;20.60;68.00;;;;;;5046090;28;20052;-28
2022/07/07 05:53:30;;;;;;;1.73;0.77;;;20.70;68.00;;;;;;5042299;28;20055;-27
2022/07/07 05:55:56;;;;;;;1.88;0.73;;;20.70;68.30;;;;;;5039298;28;20040;-27
2022/07/07 05:58:22;;;;;;;1.60;1.00;;;20.70;68.40;;;;;;5048866;28;20041;-27
2022/07/07 06:00:48;;;;;;;1.48;0.70;;;20.70;68.40;;;;;;5042920;28;20052;-27
2022/07/07 06:03:13;;;;;;;1.27;0.68;;;20.70;68.40;;;;;;5050504;28;20124;-28
2022/07/07 06:05:39;;;;;;;1.67;0.80;;;20.70;68.60;;;;;;5039420;28;20164;-28
2022/07/07 06:08:05;;;;;;;1.83;1.10;;;20.70;68.60;;;;;;5035987;28;20037;-28
2022/07/07 06:10:32;;;;;;;1.48;1.33;;;20.70;68.70;;;;;;5031361;28;20196;-28
2022/07/07 06:12:57;;;;;;;0.90;0.47;;;20.80;69.00;;;;;;5037647;28;20052;-27
2022/07/07 06:15:23;;;;;;;2.33;0.82;;;20.80;68.80;;;;;;5052169;28;20047;-27
2022/07/07 06:17:49;;;;;;;1.35;0.90;;;20.80;69.00;;;;;;5045976;28;20045;-27
2022/07/07 06:20:14;;;;;;;1.75;0.70;;;20.80;69.20;;;;;;5050054;28;20048;-29
2022/07/07 06:22:40;;;;;;;1.23;0.65;;;20.80;69.90;;;;;;5055267;28;20120;-27
2022/07/07 06:25:08;;;;;;;1.38;0.70;;;20.80;69.40;;;;;;5036265;28;20071;-27
2022/07/07 06:27:35;;;;;;;1.02;0.60;;;20.80;69.80;;;;;;5043819;28;20059;-28
2022/07/07 06:30:01;;;;;;;1.60;0.82;;;20.80;69.80;;;;;;5051116;28;20139;-29
2022/07/07 06:32:26;;;;;;;1.58;0.88;;;20.80;69.80;;;;;;5055058;28;20186;-27
2022/07/07 06:34:52;;;;;;;3.38;1.40;;;20.80;69.90;;;;;;5048949;28;20053;-28
2022/07/07 06:37:18;;;;;;;2.08;0.95;;;20.90;70.20;;;;;;5054404;28;20040;-26
2022/07/07 06:39:44;;;;;;;1.08;0.77;;;20.90;71.10;;;;;;4700577;28;10000031;-27
2022/07/07 06:42:09;;;;;;;2.35;0.80;;;20.90;70.50;;;;;;5041521;28;20039;-27
2022/07/07 06:44:35;;;;;;;0.85;0.80;;;20.90;70.80;;;;;;5061827;28;20048;-27
2022/07/07 06:47:01;;;;;;;3.30;1.17;;;20.90;70.50;;;;;;5059635;28;20507;-28
2022/07/07 06:49:26;;;;;;;1.77;1.15;;;21.00;69.60;;;;;;5053550;28;20068;-28
2022/07/07 06:51:52;;;;;;;2.53;0.80;;;21.00;69.30;;;;;;5041629;28;20075;-27
2022/07/07 06:54:18;;;;;;;1.65;0.80;;;21.00;68.40;;;;;;5064196;28;20048;-27
2022/07/07 06:56:44;;;;;;;1.65;0.90;;;21.00;68.70;;;;;;5065096;28;20402;-27
2022/07/07 06:59:09;;;;;;;1.25;0.50;;;21.00;69.00;;;;;;5061801;28;20056;-27
2022/07/07 07:01:35;;;;;;;1.27;0.80;;;21.00;69.10;;;;;;5053309;28;20128;-27
2022/07/07 07:04:00;;;;;;;2.05;0.73;;;21.00;68.70;;;;;;5065898;28;20033;-27
2022/07/07 07:06:28;;;;;;;2.45;0.70;;;21.00;69.00;;;;;;5053448;28;20045;-27
2022/07/07 07:08:57;;;;;;;2.03;0.75;;;21.10;69.10;;;;;;5052720;28;20140;-28
2022/07/07 07:11:22;;;;;;;0.93;0.60;;;21.10;69.10;;;;;;5057279;28;20045;-28
2022/07/07 07:13:48;;;;;;;1.50;0.90;;;21.10;68.70;;;;;;5056383;28;20051;-28
2022/07/07 07:16:15;;;;;;;2.05;0.93;;;21.10;68.20;;;;;;5055640;28;20467;-27
2022/07/07 07:18:41;;;;;;;1.77;0.57;;;21.20;68.00;;;;;;5058495;28;20061;-28
2022/07/07 07:21:06;;;;;;;0.82;0.60;;;21.20;68.50;;;;;;5058152;28;20042;-27
2022/07/07 07:23:32;;;;;;;0.70;0.43;;;21.20;67.50;;;;;;5052417;28;20052;-27
2022/07/07 07:25:57;;;;;;;1.67;0.63;;;21.30;67.40;;;;;;5054749;28;20046;-27
2022/07/07 07:28:23;;;;;;;0.68;0.63;;;21.30;67.20;;;;;;5058488;28;20045;-29
2022/07/07 07:30:48;;;;;;;0.80;0.50;;;21.30;67.20;;;;;;5049830;28;20390;-27
2022/07/07 07:33:14;;;;;;;0.90;0.50;;;21.30;67.30;;;;;;5043765;28;20091;-28
2022/07/07 07:35:40;;;;;;;0.65;0.65;;;21.30;67.40;;;;;;5058147;28;20131;-26
2022/07/07 07:38:06;;;;;;;1.35;0.80;;;21.30;66.90;;;;;;5066353;28;20170;-27
2022/07/07 07:40:32;;;;;;;0.77;0.50;;;21.30;67.00;;;;;;5065700;28;20366;-27
2022/07/07 07:42:57;;;;;;;0.80;0.50;;;21.30;67.30;;;;;;5063451;28;20048;-28
2022/07/07 07:45:23;;;;;;;1.02;0.80;;;21.30;67.60;;;;;;5066842;28;20064;-27
2022/07/07 07:47:49;;;;;;;1.00;0.60;;;21.40;67.40;;;;;;5066199;28;20041;-28
2022/07/07 07:50:19;;;;;;;0.88;0.57;;;21.40;67.30;;;;;;5066673;28;20103;-28
2022/07/07 07:52:45;;;;;;;2.08;0.60;;;21.40;67.60;;;;;;5053494;28;20102;-28
2022/07/07 07:55:12;;;;;;;2.10;1.08;;;21.40;67.60;;;;;;5059986;28;20032;-28
2022/07/07 07:57:37;;;;;;;0.73;0.40;;;21.40;67.50;;;;;;5050337;28;20463;-28
2022/07/07 08:00:08;;;;;;;2.55;0.70;;;21.40;67.60;;;;;;5065400;28;20040;-28
2022/07/07 08:02:34;;;;;;;0.80;0.75;;;21.40;67.90;;;;;;5049040;28;20506;-28
2022/07/07 08:04:59;;;;;;;1.30;0.70;;;21.40;67.80;;;;;;5055980;28;20036;-28
2022/07/07 08:07:25;;;;;;;0.88;0.45;;;21.40;67.90;;;;;;5051086;28;20045;-28
2022/07/07 08:09:50;;;;;;;0.90;0.60;;;21.40;67.60;;;;;;5058698;28;20106;-28
2022/07/07 08:12:16;;;;;;;0.93;0.60;;;21.40;67.60;;;;;;5059397;28;20049;-28
2022/07/07 08:14:41;;;;;;;1.83;0.60;;;21.40;67.30;;;;;;5053478;28;20048;-28
2022/07/07 08:17:07;;;;;;;0.65;0.43;;;21.40;67.60;;;;;;5041918;28;20093;-27
2022/07/07 08:19:33;;;;;;;0.90;0.50;;;21.40;67.50;;;;;;5061160;28;20097;-28
2022/07/07 08:21:58;;;;;;;0.82;0.82;;;21.40;67.40;;;;;;5060028;28;20053;-27
2022/07/07 08:24:25;;;;;;;1.38;0.50;;;21.40;67.20;;;;;;5056213;28;20040;-27
2022/07/07 08:26:50;;;;;;;0.73;0.73;;;21.40;67.30;;;;;;5037380;28;20057;-28
2022/07/07 08:29:16;;;;;;;0.75;0.65;;;21.50;67.10;;;;;;5055849;28;20033;-28
2022/07/07 08:31:41;;;;;;;0.82;0.60;;;21.50;67.20;;;;;;5055864;28;20044;-28
2022/07/07 08:34:07;;;;;;;0.60;0.50;;;21.50;67.40;;;;;;5048177;28;20087;-28
2022/07/07 08:36:33;;;;;;;1.27;0.60;;;21.50;67.30;;;;;;5037378;28;20463;-27
2022/07/07 08:38:59;;;;;;;2.05;0.60;;;21.50;67.20;;;;;;5055752;28;20245;-28
2022/07/07 08:41:25;;;;;;;2.75;0.50;;;21.50;67.20;;;;;;5052407;28;20508;-27
2022/07/07 08:43:51;;;;;;;0.73;0.50;;;21.50;67.20;;;;;;5060171;28;20069;-28
2022/07/07 08:46:16;;;;;;;0.70;0.60;;;21.50;66.80;;;;;;5051912;28;20493;-28
2022/07/07 08:48:43;;;;;;;1.13;0.60;;;21.50;67.00;;;;;;5055738;28;21272;-28
2022/07/07 08:51:08;;;;;;;0.68;0.63;;;21.50;66.90;;;;;;5055752;28;20742;-28
2022/07/07 08:53:35;;;;;;;0.60;0.40;;;21.50;66.80;;;;;;5056241;28;20695;-28
2022/07/07 08:56:07;;;;;;;0.93;0.60;;;21.50;66.90;;;;;;5054562;28;20127;-28
2022/07/07 08:58:35;;;;;;;0.90;0.60;;;21.50;66.70;;;;;;5059615;28;20090;-28
2022/07/07 09:01:04;;;;;;;0.40;0.40;;;21.50;66.80;;;;;;5039276;28;20099;-28
2022/07/07 09:03:30;;;;;;;0.43;0.43;;;21.60;66.70;;;;;;5059063;28;20650;-28
2022/07/07 09:05:56;;;;;;;0.60;0.60;;;21.60;66.70;;;;;;5053244;28;20052;-28
2022/07/07 09:08:22;;;;;;;1.40;0.80;;;21.60;66.50;;;;;;5039417;28;20037;-28
2022/07/07 09:10:47;;;;;;;0.50;0.50;;;21.60;66.60;;;;;;5041045;28;20119;-28
2022/07/07 09:13:31;;;;;;;0.50;0.50;;;21.60;66.70;;;;;;5035705;28;20037;-28
2022/07/07 09:16:01;;;;;;;0.75;0.50;;;21.60;66.50;;;;;;5052444;28;20075;-28
2022/07/07 09:18:45;;;;;;;0.80;0.77;;;21.60;66.70;;;;;;5056325;28;20494;-28
2022/07/07 09:21:31;;;;;;;0.68;0.50;;;21.60;66.50;;;;;;5055808;28;20129;-28
2022/07/07 09:23:57;;;;;;;0.40;0.40;;;21.60;66.80;;;;;;5050168;28;20128;-28
2022/07/07 09:26:45;;;;;;;1.00;0.40;;;21.60;66.80;;;;;;5058474;28;20044;-28
2022/07/07 09:29:17;;;;;;;0.65;0.50;;;21.60;67.50;;;;;;5057755;28;20058;-28
2022/07/07 09:31:52;;;;;;;0.68;0.68;;;21.60;66.60;;;;;;5046231;28;20052;-28
2022/07/07 09:34:18;;;;;;;0.50;0.45;;;21.60;66.20;;;;;;5053849;28;20044;-28
2022/07/07 09:39:48;;;;;;;0.50;0.50;;;21.60;66.50;;;;;;5056560;28;20051;-28
2022/07/07 09:42:21;;;;;;;0.57;0.50;;;21.60;66.30;;;;;;5038430;28;20095;-28
2022/07/07 09:44:48;;;;;;;0.57;0.50;;;21.60;66.40;;;;;;5037199;28;20046;-28
2022/07/07 09:47:14;;;;;;;0.47;0.47;;;21.60;66.50;;;;;;5039334;28;20033;-28
2022/07/07 09:49:43;;;;;;;1.25;0.73;;;21.60;66.50;;;;;;5059911;28;20045;-28
2022/07/07 09:52:18;;;;;;;1.10;0.73;;;21.70;66.50;;;;;;5051155;28;20498;-28
2022/07/07 09:54:50;;;;;;;1.13;1.00;;;21.60;66.20;;;;;;5053847;28;20048;-28
2022/07/07 09:57:16;;;;;;;0.40;0.40;;;21.70;66.30;;;;;;5056590;28;20382;-28
2022/07/07 09:59:42;;;;;;;0.50;0.50;;;21.70;66.40;;;;;;5053368;28;20037;-28
2022/07/07 10:02:27;;;;;;;1.42;0.50;;;21.70;66.10;;;;;;5066606;28;20053;-28
2022/07/07 10:04:54;;;;;;;0.50;0.50;;;21.70;66.10;;;;;;5063484;28;20663;-28
2022/07/07 10:07:21;;;;;;;0.50;0.50;;;21.70;66.00;;;;;;5043496;28;20045;-28
2022/07/07 10:09:52;;;;;;;0.40;0.40;;;21.70;66.10;;;;;;5038680;28;20057;-28
2022/07/07 10:12:20;;;;;;;0.90;0.43;;;21.70;66.10;;;;;;5042586;28;20054;-28
2022/07/07 10:14:45;;;;;;;0.70;0.70;;;21.70;66.10;;;;;;5045262;28;20055;-28
2022/07/07 10:17:16;;;;;;;0.45;0.30;;;21.70;66.00;;;;;;5060227;28;20036;-28
2022/07/07 10:19:42;;;;;;;0.63;0.63;;;21.70;65.90;;;;;;5057444;28;20146;-28
2022/07/07 10:22:08;;;;;;;0.60;0.60;;;21.70;66.00;;;;;;5052145;28;20499;-27
2022/07/07 10:24:35;;;;;;;0.93;0.55;;;21.70;65.80;;;;;;5025236;28;20050;-28
2022/07/07 10:27:02;;;;;;;0.52;0.45;;;21.80;65.90;;;;;;5057645;28;20056;-28
2022/07/07 10:29:48;;;;;;;0.70;0.43;;;21.70;66.10;;;;;;5054320;28;20040;-28
2022/07/07 10:32:18;;;;;;;0.60;0.57;;;21.80;66.10;;;;;;5042281;28;20386;-27
2022/07/07 10:34:52;;;;;;;0.50;0.32;;;21.80;65.90;;;;;;5038961;28;20060;-28
2022/07/07 10:37:18;;;;;;;0.70;0.70;;;21.80;66.70;;;;;;5044781;28;20448;-27
2022/07/07 10:39:49;;;;;;;0.75;0.60;;;21.80;65.70;;;;;;5040185;28;20042;-28
2022/07/07 10:42:17;;;;;;;0.40;0.40;;;21.80;65.90;;;;;;5041164;28;20487;-28
2022/07/07 10:44:50;;;;;;;0.50;0.50;;;21.80;65.70;;;;;;5056246;28;20033;-28
2022/07/07 10:47:22;;;;;;;0.60;0.60;;;21.80;66.10;;;;;;5051145;28;20036;-28
2022/07/07 10:49:52;;;;;;;0.85;0.40;;;21.80;66.00;;;;;;5058982;28;20045;-28
2022/07/07 10:52:22;;;;;;;0.50;0.50;;;21.80;65.90;;;;;;5042272;28;20111;-28
2022/07/07 10:54:54;;;;;;;0.85;0.50;;;21.80;65.80;;;;;;5040783;28;20132;-27
2022/07/07 10:57:21;;;;;;;0.52;0.47;;;21.80;65.90;;;;;;5043335;28;20045;-28
2022/07/07 11:00:06;;;;;;;0.40;0.40;;;21.80;66.10;;;;;;5061226;28;20032;-28
2022/07/07 11:02:36;;;;;;;0.65;0.65;;;21.80;65.80;;;;;;5048784;28;20059;-27
2022/07/07 11:05:26;;;;;;;0.85;0.75;;;21.80;65.90;;;;;;5054733;28;20041;-28
2022/07/07 11:08:02;;;;;;;0.70;0.68;;;21.80;65.70;;;;;;5057254;28;20029;-28
2022/07/07 11:10:54;;;;;;;0.50;0.50;;;21.80;65.80;;;;;;5055983;28;20136;-28
2022/07/07 11:13:29;;;;;;;0.47;0.40;;;21.90;66.10;;;;;;5064229;28;20044;-28
2022/07/07 11:16:11;;;;;;;0.40;0.40;;;21.80;65.60;;;;;;5057142;28;20045;-28
2022/07/07 11:18:36;;;;;;;0.40;0.40;;;21.80;65.50;;;;;;5056059;28;20052;-27
2022/07/07 11:21:03;;;;;;;0.40;0.40;;;21.90;65.40;;;;;;5042077;28;20052;-28
2022/07/07 11:23:49;;;;;;;0.52;0.52;;;21.90;65.30;;;;;;5039644;28;20502;-28
2022/07/07 11:26:24;;;;;;;0.88;0.60;;;21.90;65.60;;;;;;5061752;28;20037;-28
2022/07/07 11:28:59;;;;;;;0.40;0.40;;;21.80;65.60;;;;;;5063208;28;20040;-28
2022/07/07 11:31:26;;;;;;;0.50;0.50;;;21.90;65.50;;;;;;5051050;28;20498;-28
2022/07/07 11:33:53;;;;;;;0.30;0.30;;;21.90;65.30;;;;;;5040818;28;20139;-28
2022/07/07 11:36:21;;;;;;;0.82;0.57;;;21.90;65.20;;;;;;5057971;28;20097;-28
2022/07/07 11:38:48;;;;;;;1.00;0.47;;;21.90;65.00;;;;;;5053474;28;20051;-28
2022/07/07 11:41:14;;;;;;;0.50;0.50;;;21.90;65.30;;;;;;5054888;28;20048;-28
2022/07/07 11:43:40;;;;;;;0.52;0.38;;;21.90;65.60;;;;;;5060453;28;20562;-28
2022/07/07 11:46:05;;;;;;;1.08;0.63;;;21.90;65.20;;;;;;5054866;28;20075;-28
2022/07/07 11:48:35;;;;;;;1.52;0.60;;;21.90;66.00;;;;;;5041368;28;20049;-28
2022/07/07 11:51:01;;;;;;;0.65;0.50;;;21.90;65.00;;;;;;5057373;28;20041;-28
2022/07/07 11:53:27;;;;;;;0.28;0.28;;;22.00;65.10;;;;;;5059442;28;20504;-28
2022/07/07 11:55:52;;;;;;;0.77;0.45;;;21.90;65.00;;;;;;5054987;28;20615;-28
2022/07/07 11:58:18;;;;;;;0.60;0.60;;;21.90;65.00;;;;;;5058801;28;20033;-28
2022/07/07 12:00:43;;;;;;;0.32;0.30;;;22.00;65.10;;;;;;5053315;28;20049;-27
2022/07/07 12:03:10;;;;;;;0.50;0.47;;;22.00;66.50;;;;;;5057570;28;20041;-28
2022/07/07 12:05:38;;;;;;;0.73;0.65;;;22.00;65.60;;;;;;5038881;28;20072;-27
2022/07/07 12:08:07;;;;;;;0.30;0.30;;;22.00;66.10;;;;;;5051941;28;20041;-28
2022/07/07 12:10:38;;;;;;;0.50;0.50;;;22.00;66.30;;;;;;5048865;28;20102;-28
2022/07/07 12:13:10;;;;;;;0.55;0.40;;;22.00;65.30;;;;;;5057598;28;20048;-28
2022/07/07 12:15:40;;;;;;;1.10;0.50;;;22.00;65.50;;;;;;5058085;28;20037;-28
2022/07/07 12:18:08;;;;;;;0.40;0.40;;;22.00;65.40;;;;;;5051389;28;20102;-28
2022/07/07 12:20:34;;;;;;;0.40;0.40;;;22.10;65.40;;;;;;5058294;28;20448;-28
2022/07/07 12:23:01;;;;;;;0.45;0.45;;;22.00;65.80;;;;;;5061715;28;20036;-28
2022/07/07 12:25:28;;;;;;;1.50;0.82;;;22.10;65.40;;;;;;5055999;28;20052;-28
2022/07/07 12:28:01;;;;;;;0.50;0.40;;;22.00;65.30;;;;;;5055765;28;20032;-28
2022/07/07 12:30:28;;;;;;;0.30;0.30;;;22.00;66.20;;;;;;5055832;28;20158;-28
2022/07/07 12:32:54;;;;;;;0.50;0.40;;;22.10;65.80;;;;;;5054233;28;20053;-28
2022/07/07 12:35:37;;;;;;;0.30;0.30;;;22.10;65.90;;;;;;5052597;28;20055;-28
2022/07/07 12:38:04;;;;;;;0.50;0.50;;;22.10;65.80;;;;;;5061325;28;20534;-27
2022/07/07 12:40:30;;;;;;;0.30;0.30;;;22.10;65.50;;;;;;5052305;28;20255;-28
2022/07/07 12:42:56;;;;;;;0.47;0.47;;;22.00;65.80;;;;;;5040659;28;20053;-28
2022/07/07 12:45:22;;;;;;;0.45;0.45;;;22.10;66.20;;;;;;5041157;28;20044;-28
2022/07/07 12:47:49;;;;;;;0.40;0.40;;;22.10;65.60;;;;;;5037641;28;20128;-28